Time;durP1;ratioP1;P1;durP2;ratioP2;P2;SDS_P1;SDS_P2;PMS_P1;PMS_P2;Temp;Humidity;BMP_temperature;BMP_pressure;BME280_temperature;BME280_humidity;BME280_pressure;Samples;Min_cycle;Max_cycle;Signal;HPM_P1;HPM_P2
2021/10/27 00:01:51;;;;;;;6.05;3.55;;;19.10;72.10;;;;;;5054175;28;20029;-67
2021/10/27 00:04:17;;;;;;;5.45;3.28;;;19.10;72.20;;;;;;5054380;28;20025;-67
2021/10/27 00:06:42;;;;;;;6.75;3.78;;;19.10;72.10;;;;;;5054047;28;20044;-67
2021/10/27 00:09:09;;;;;;;4.90;3.30;;;19.10;72.20;;;;;;5052999;28;20482;-67
2021/10/27 00:11:34;;;;;;;6.57;3.47;;;19.10;72.20;;;;;;5053148;28;20094;-67
2021/10/27 00:14:00;;;;;;;4.95;3.35;;;19.10;72.20;;;;;;5053808;28;20045;-67
2021/10/27 00:16:28;;;;;;;5.85;3.65;;;19.10;72.30;;;;;;5053122;28;20052;-67
2021/10/27 00:18:53;;;;;;;4.15;3.00;;;19.10;72.20;;;;;;5052812;28;20024;-67
2021/10/27 00:21:19;;;;;;;5.38;3.33;;;19.00;72.20;;;;;;5054107;28;20401;-67
2021/10/27 00:23:45;;;;;;;5.38;3.28;;;19.10;72.20;;;;;;5052844;28;20035;-67
2021/10/27 00:26:10;;;;;;;6.07;3.10;;;19.00;72.20;;;;;;5036039;28;20478;-67
2021/10/27 00:28:36;;;;;;;5.40;3.15;;;19.00;72.30;;;;;;5052658;28;20386;-67
2021/10/27 00:31:01;;;;;;;3.75;3.05;;;19.00;72.20;;;;;;5053779;28;20402;-67
2021/10/27 00:33:27;;;;;;;4.00;2.90;;;19.00;72.30;;;;;;5054002;28;20033;-67
2021/10/27 00:35:53;;;;;;;5.07;3.00;;;19.00;72.30;;;;;;5053741;28;20029;-67
2021/10/27 00:38:19;;;;;;;5.43;3.53;;;19.00;72.30;;;;;;5053679;28;20474;-67
2021/10/27 00:40:45;;;;;;;3.92;2.80;;;19.00;72.30;;;;;;5036008;28;20070;-65
2021/10/27 00:43:11;;;;;;;4.47;2.97;;;19.00;72.30;;;;;;5051992;28;20074;-65
2021/10/27 00:45:37;;;;;;;4.57;3.15;;;19.00;72.40;;;;;;5053754;28;20100;-65
2021/10/27 00:48:03;;;;;;;4.53;2.92;;;19.00;72.40;;;;;;5053383;28;20074;-65
2021/10/27 00:50:28;;;;;;;3.95;2.83;;;19.00;72.40;;;;;;5052386;28;20096;-65
2021/10/27 00:52:54;;;;;;;4.68;3.03;;;19.00;72.40;;;;;;5053374;28;20032;-65
2021/10/27 00:55:20;;;;;;;6.05;3.10;;;19.00;72.40;;;;;;5053335;28;20021;-65
2021/10/27 00:57:45;;;;;;;4.97;2.85;;;19.00;72.40;;;;;;5053043;28;20552;-65
2021/10/27 01:00:11;;;;;;;5.50;2.85;;;19.00;72.50;;;;;;5051936;28;20485;-65
2021/10/27 01:02:37;;;;;;;4.65;2.63;;;19.00;72.50;;;;;;5053627;28;20024;-65
2021/10/27 01:05:03;;;;;;;5.53;3.00;;;19.00;72.50;;;;;;5053037;28;20100;-67
2021/10/27 01:07:28;;;;;;;4.38;2.85;;;19.00;72.50;;;;;;5052940;28;20098;-67
2021/10/27 01:09:54;;;;;;;3.58;2.72;;;19.00;72.50;;;;;;5051936;28;20017;-67
2021/10/27 01:12:19;;;;;;;4.20;2.63;;;19.00;72.50;;;;;;5050873;28;20501;-67
2021/10/27 01:14:46;;;;;;;5.68;2.75;;;19.00;72.50;;;;;;5051986;28;20099;-67
2021/10/27 01:17:13;;;;;;;3.85;2.58;;;19.00;72.60;;;;;;5053428;28;20037;-67
2021/10/27 01:19:45;;;;;;;2.72;2.17;;;19.00;72.60;;;;;;5051898;28;20017;-67
2021/10/27 01:22:15;;;;;;;3.43;2.43;;;18.90;72.50;;;;;;5052994;28;20128;-65
2021/10/27 01:24:41;;;;;;;4.47;2.53;;;18.90;72.60;;;;;;5051736;28;20071;-65
2021/10/27 01:27:06;;;;;;;3.38;2.63;;;18.90;72.60;;;;;;5052318;28;20033;-67
2021/10/27 01:29:32;;;;;;;3.05;2.30;;;19.00;72.70;;;;;;5051674;28;20479;-67
2021/10/27 01:31:58;;;;;;;3.85;2.55;;;19.00;72.70;;;;;;5052838;28;20067;-67
2021/10/27 01:34:24;;;;;;;4.30;2.63;;;18.90;72.70;;;;;;5052775;28;20101;-67
2021/10/27 01:36:50;;;;;;;3.75;2.33;;;18.90;72.60;;;;;;5052747;28;20108;-67
2021/10/27 01:39:15;;;;;;;3.67;2.38;;;18.90;72.70;;;;;;5052573;28;20032;-67
2021/10/27 01:41:41;;;;;;;2.78;2.28;;;18.90;72.80;;;;;;5052278;28;20025;-65
2021/10/27 01:44:06;;;;;;;3.80;2.30;;;18.90;72.70;;;;;;5051322;28;20125;-65
2021/10/27 01:46:36;;;;;;;3.22;2.38;;;18.90;72.80;;;;;;5052596;28;20029;-65
2021/10/27 01:49:03;;;;;;;4.53;2.45;;;18.90;72.80;;;;;;5034599;28;20160;-65
2021/10/27 01:51:29;;;;;;;3.25;2.35;;;18.90;72.80;;;;;;5052543;28;20032;-65
2021/10/27 01:53:55;;;;;;;3.50;2.40;;;18.90;72.80;;;;;;5051273;28;20029;-65
2021/10/27 01:56:21;;;;;;;3.08;2.42;;;18.90;72.90;;;;;;5050761;28;20029;-65
2021/10/27 01:58:47;;;;;;;4.05;2.55;;;18.90;72.80;;;;;;5051399;28;20025;-65
2021/10/27 02:01:12;;;;;;;3.08;2.33;;;18.90;72.80;;;;;;5050981;28;20047;-65
2021/10/27 02:03:38;;;;;;;3.10;2.30;;;18.90;72.80;;;;;;5052370;28;20029;-65
2021/10/27 02:06:04;;;;;;;5.13;2.33;;;18.90;72.80;;;;;;5052135;28;20041;-67
2021/10/27 02:08:29;;;;;;;4.90;2.63;;;18.90;72.80;;;;;;5032626;28;20029;-67
2021/10/27 02:10:55;;;;;;;3.33;2.20;;;18.90;72.90;;;;;;5030915;28;20049;-67
2021/10/27 02:13:20;;;;;;;3.08;2.10;;;18.90;72.90;;;;;;5031245;28;20058;-67
2021/10/27 02:15:46;;;;;;;2.83;2.25;;;18.90;72.90;;;;;;5031055;28;20026;-67
2021/10/27 02:18:11;;;;;;;3.40;1.83;;;18.90;72.90;;;;;;5030982;28;20038;-67
2021/10/27 02:20:37;;;;;;;2.95;2.50;;;18.90;72.90;;;;;;5032331;28;20036;-67
2021/10/27 02:23:03;;;;;;;2.80;2.40;;;18.90;72.90;;;;;;5033820;28;20503;-67
2021/10/27 02:25:28;;;;;;;3.20;2.28;;;18.90;72.90;;;;;;5044192;28;20025;-67
2021/10/27 02:27:54;;;;;;;4.50;2.38;;;18.90;72.90;;;;;;5055074;28;20033;-67
2021/10/27 02:30:20;;;;;;;4.55;2.70;;;18.90;73.00;;;;;;5055979;28;20028;-67
2021/10/27 02:32:45;;;;;;;2.35;1.95;;;18.80;72.90;;;;;;5055112;28;20036;-67
2021/10/27 02:35:11;;;;;;;2.42;2.10;;;18.90;73.00;;;;;;5055958;28;20082;-67
2021/10/27 02:37:37;;;;;;;4.00;2.30;;;18.90;73.00;;;;;;5056012;28;20379;-67
2021/10/27 02:40:03;;;;;;;3.00;2.00;;;18.90;73.00;;;;;;5054530;28;20519;-67
2021/10/27 02:42:28;;;;;;;3.13;2.13;;;18.80;72.90;;;;;;5055791;28;20028;-67
2021/10/27 02:44:54;;;;;;;2.75;2.00;;;18.90;73.00;;;;;;5054725;28;20016;-67
2021/10/27 02:47:20;;;;;;;3.75;2.13;;;18.90;73.00;;;;;;5054580;28;20037;-67
2021/10/27 02:49:45;;;;;;;2.22;1.88;;;18.80;73.00;;;;;;5055804;28;20059;-67
2021/10/27 02:52:11;;;;;;;3.17;2.45;;;18.80;73.00;;;;;;5055794;28;20056;-67
2021/10/27 02:54:37;;;;;;;2.70;1.92;;;18.80;73.00;;;;;;5055496;28;20017;-67
2021/10/27 02:57:02;;;;;;;1.88;1.67;;;18.90;73.20;;;;;;5054553;28;20037;-67
2021/10/27 02:59:28;;;;;;;2.30;1.92;;;18.90;73.10;;;;;;5055721;28;20498;-67
2021/10/27 03:01:54;;;;;;;2.75;2.03;;;18.90;73.20;;;;;;5055425;28;20040;-67
2021/10/27 03:04:19;;;;;;;4.32;2.05;;;18.80;73.00;;;;;;5054420;28;20029;-67
2021/10/27 03:06:45;;;;;;;3.47;2.20;;;18.80;73.10;;;;;;5055190;28;20049;-67
2021/10/27 03:09:10;;;;;;;2.10;1.88;;;18.80;73.10;;;;;;5053994;28;20486;-67
2021/10/27 03:11:36;;;;;;;3.38;2.20;;;18.80;73.10;;;;;;5055428;28;20021;-67
2021/10/27 03:14:02;;;;;;;2.95;1.98;;;18.80;73.10;;;;;;5055471;28;20449;-67
2021/10/27 03:16:27;;;;;;;2.85;2.10;;;18.80;73.10;;;;;;5054071;28;20116;-67
2021/10/27 03:18:53;;;;;;;2.20;1.83;;;18.80;73.20;;;;;;5055379;28;20021;-67
2021/10/27 03:21:18;;;;;;;2.05;1.80;;;18.80;73.20;;;;;;5055239;28;20029;-67
2021/10/27 03:23:44;;;;;;;2.72;1.90;;;18.80;73.20;;;;;;5054879;28;20385;-67
2021/10/27 03:26:10;;;;;;;2.97;1.70;;;18.80;73.20;;;;;;5054947;28;20213;-67
2021/10/27 03:28:35;;;;;;;2.15;1.85;;;18.80;73.20;;;;;;5054990;28;20016;-67
2021/10/27 03:31:01;;;;;;;2.28;1.77;;;18.80;73.20;;;;;;5055059;28;20409;-65
2021/10/27 03:33:26;;;;;;;2.20;1.80;;;18.80;73.20;;;;;;5054910;28;20032;-67
2021/10/27 03:35:52;;;;;;;2.03;1.88;;;18.80;73.20;;;;;;5054269;28;20052;-67
2021/10/27 03:38:18;;;;;;;1.60;1.50;;;18.80;73.20;;;;;;5053319;28;20036;-67
2021/10/27 03:40:45;;;;;;;1.80;1.70;;;18.80;73.20;;;;;;5053857;28;20025;-67
2021/10/27 03:43:11;;;;;;;2.35;2.00;;;18.80;74.30;;;;;;5054875;28;20123;-67
2021/10/27 03:45:36;;;;;;;3.08;1.90;;;18.80;73.30;;;;;;5054814;28;20470;-65
2021/10/27 03:48:03;;;;;;;2.83;1.70;;;18.80;73.30;;;;;;5053561;28;20044;-67
2021/10/27 03:50:28;;;;;;;3.25;1.60;;;18.80;73.30;;;;;;5053481;28;20502;-67
2021/10/27 03:52:54;;;;;;;1.85;1.55;;;18.80;73.30;;;;;;5054367;28;20086;-66
2021/10/27 03:55:20;;;;;;;2.83;1.83;;;18.80;74.30;;;;;;5054429;28;20028;-67
2021/10/27 03:57:45;;;;;;;2.20;1.90;;;18.80;73.30;;;;;;5053483;28;20029;-67
2021/10/27 04:00:12;;;;;;;3.13;1.90;;;18.80;73.30;;;;;;5054448;28;20040;-67
2021/10/27 04:02:41;;;;;;;2.45;1.70;;;18.80;73.30;;;;;;5054375;28;20494;-67
2021/10/27 04:05:07;;;;;;;3.10;1.77;;;18.80;73.30;;;;;;5053283;28;20025;-67
2021/10/27 04:07:36;;;;;;;2.13;1.70;;;18.80;73.40;;;;;;5052429;28;20049;-67
2021/10/27 04:10:05;;;;;;;2.33;1.50;;;18.80;73.40;;;;;;5054463;28;20405;-67
2021/10/27 04:12:31;;;;;;;2.20;1.52;;;18.80;73.30;;;;;;5053223;28;20074;-67
2021/10/27 04:14:57;;;;;;;1.65;1.55;;;18.80;73.40;;;;;;5053092;28;20062;-65
2021/10/27 04:17:24;;;;;;;3.33;1.50;;;18.80;73.40;;;;;;5052965;28;20021;-65
2021/10/27 04:19:49;;;;;;;2.55;1.73;;;18.80;73.40;;;;;;5054175;28;20043;-65
2021/10/27 04:22:15;;;;;;;2.17;1.73;;;18.80;73.50;;;;;;5053689;28;20021;-67
2021/10/27 04:24:41;;;;;;;5.00;1.77;;;18.80;73.50;;;;;;5052867;28;20025;-67
2021/10/27 04:27:07;;;;;;;2.55;1.65;;;18.80;73.50;;;;;;5052714;28;20442;-65
2021/10/27 04:29:33;;;;;;;2.28;1.67;;;18.80;73.50;;;;;;5052908;28;20067;-65
2021/10/27 04:31:58;;;;;;;1.88;1.60;;;18.80;73.50;;;;;;5053951;28;20021;-65
2021/10/27 04:34:24;;;;;;;2.67;1.85;;;18.80;73.50;;;;;;5053833;28;20029;-67
2021/10/27 04:36:50;;;;;;;2.28;1.70;;;18.80;73.50;;;;;;5053618;28;20036;-67
2021/10/27 04:39:15;;;;;;;2.22;1.52;;;18.80;73.60;;;;;;5052548;28;20028;-67
2021/10/27 04:41:41;;;;;;;2.47;1.80;;;18.70;73.60;;;;;;5052678;28;20499;-67
2021/10/27 04:44:06;;;;;;;1.55;1.45;;;18.70;73.50;;;;;;5053687;28;20167;-67
2021/10/27 04:46:32;;;;;;;2.03;1.52;;;18.80;73.60;;;;;;5051251;28;20086;-67
2021/10/27 04:48:58;;;;;;;1.75;1.40;;;18.80;73.60;;;;;;5053842;28;20103;-67
2021/10/27 04:51:23;;;;;;;1.75;1.50;;;18.70;74.10;;;;;;5053143;28;20051;-67
2021/10/27 04:53:49;;;;;;;1.88;1.45;;;18.80;73.60;;;;;;5052321;28;20021;-67
2021/10/27 04:56:14;;;;;;;3.00;1.45;;;18.70;73.60;;;;;;5053554;28;20017;-67
2021/10/27 04:58:40;;;;;;;1.63;1.48;;;18.70;73.60;;;;;;5053344;28;20033;-67
2021/10/27 05:01:06;;;;;;;2.47;1.80;;;18.70;73.70;;;;;;5053476;28;20028;-67
2021/10/27 05:03:31;;;;;;;1.42;1.30;;;18.80;73.70;;;;;;5053144;28;20562;-67
2021/10/27 05:05:58;;;;;;;3.25;1.92;;;18.70;73.70;;;;;;5053049;28;20040;-67
2021/10/27 05:08:24;;;;;;;2.45;1.50;;;18.70;73.70;;;;;;5051706;28;20029;-67
2021/10/27 05:10:53;;;;;;;1.83;1.30;;;18.70;73.70;;;;;;5049649;28;20026;-67
2021/10/27 05:13:19;;;;;;;1.98;1.45;;;18.80;73.70;;;;;;5051167;28;20033;-65
2021/10/27 05:15:46;;;;;;;1.80;1.45;;;18.70;73.60;;;;;;5064343;28;20074;-65
2021/10/27 05:18:12;;;;;;;1.98;1.40;;;18.80;73.70;;;;;;5052486;28;20029;-67
2021/10/27 05:20:37;;;;;;;1.83;1.33;;;18.80;73.70;;;;;;5051316;28;20366;-67
2021/10/27 05:23:03;;;;;;;2.00;1.60;;;18.70;73.70;;;;;;5058946;28;20481;-67
2021/10/27 05:25:29;;;;;;;1.35;1.15;;;18.80;73.70;;;;;;5062539;28;20036;-67
2021/10/27 05:27:54;;;;;;;2.05;1.52;;;18.80;73.70;;;;;;5053300;28;20025;-67
2021/10/27 05:30:20;;;;;;;1.65;1.33;;;18.80;73.80;;;;;;5049938;28;20366;-67
2021/10/27 05:32:46;;;;;;;2.65;1.48;;;18.70;73.70;;;;;;5051726;28;20492;-67
2021/10/27 05:35:11;;;;;;;1.40;1.30;;;18.80;73.80;;;;;;5051453;28;20498;-67
2021/10/27 05:37:37;;;;;;;2.58;1.40;;;18.80;73.80;;;;;;5051912;28;20040;-67
2021/10/27 05:40:03;;;;;;;2.47;1.40;;;18.70;73.70;;;;;;5044340;28;20090;-67
2021/10/27 05:42:30;;;;;;;1.92;1.30;;;18.70;73.70;;;;;;5034241;28;20174;-67
2021/10/27 05:44:57;;;;;;;1.92;1.63;;;18.80;73.80;;;;;;5031527;28;20075;-67
2021/10/27 05:47:23;;;;;;;2.17;1.30;;;18.80;73.80;;;;;;5059030;28;20477;-67
2021/10/27 05:49:53;;;;;;;1.75;1.35;;;18.70;73.70;;;;;;5060446;28;20017;-67
2021/10/27 05:57:39;;;;;;;2.45;1.42;;;18.70;73.80;;;;;;5060950;28;20055;-67
2021/10/27 06:00:05;;;;;;;4.43;1.60;;;18.70;73.80;;;;;;5027692;28;20017;-67
2021/10/27 06:02:31;;;;;;;2.92;1.30;;;18.70;73.40;;;;;;5055624;28;20036;-67
2021/10/27 06:04:57;;;;;;;1.50;0.90;;;18.70;73.30;;;;;;5059359;28;20386;-67
2021/10/27 06:07:22;;;;;;;4.63;0.93;;;18.60;73.20;;;;;;5060869;28;20429;-65
2021/10/27 06:09:50;;;;;;;2.15;0.82;;;18.50;73.10;;;;;;5057875;28;20044;-67
2021/10/27 06:12:18;;;;;;;3.45;0.80;;;18.50;73.10;;;;;;5056291;28;20099;-67
2021/10/27 06:14:45;;;;;;;4.22;0.95;;;18.40;73.00;;;;;;5058976;28;20108;-67
2021/10/27 06:17:10;;;;;;;2.03;0.93;;;18.40;73.10;;;;;;5058603;28;20013;-67
2021/10/27 06:19:36;;;;;;;3.80;0.63;;;18.30;73.10;;;;;;5050075;28;20367;-65
2021/10/27 06:22:02;;;;;;;3.50;0.90;;;18.30;73.00;;;;;;5046593;28;20548;-67
2021/10/27 06:24:29;;;;;;;1.08;0.65;;;18.30;72.90;;;;;;5054048;28;20387;-67
2021/10/27 06:26:55;;;;;;;1.95;0.70;;;18.30;73.00;;;;;;5044322;28;20017;-67
2021/10/27 06:29:29;;;;;;;3.45;0.80;;;18.20;72.90;;;;;;5034275;28;20075;-67
2021/10/27 06:34:57;;;;;;;3.55;0.65;;;18.20;72.90;;;;;;5035712;28;20037;-67
2021/10/27 06:46:01;;;;;;;5.63;1.00;;;18.10;72.80;;;;;;5050657;28;20043;-67
2021/10/27 06:48:27;;;;;;;11.20;1.60;;;18.00;72.90;;;;;;5050132;28;20032;-67
2021/10/27 06:50:53;;;;;;;4.97;1.45;;;18.10;73.10;;;;;;5050099;28;20027;-67
2021/10/27 06:53:19;;;;;;;6.88;1.60;;;18.10;73.10;;;;;;5049018;28;20075;-67
2021/10/27 06:55:45;;;;;;;7.28;1.95;;;18.10;73.10;;;;;;5049964;28;20017;-67
2021/10/27 06:58:13;;;;;;;5.32;1.85;;;18.10;73.10;;;;;;5048821;28;20397;-67
2021/10/27 07:00:42;;;;;;;7.32;1.55;;;18.10;73.00;;;;;;5049994;28;20053;-67
2021/10/27 07:06:05;;;;;;;6.13;2.00;;;18.20;73.00;;;;;;5050253;28;20029;-68
2021/10/27 07:16:37;;;;;;;6.35;1.50;;;18.20;73.10;;;;;;5039919;28;20075;-67
2021/10/27 07:19:03;;;;;;;7.57;1.75;;;18.20;73.20;;;;;;5055423;28;20021;-67
2021/10/27 07:21:28;;;;;;;4.93;2.05;;;18.20;73.10;;;;;;5054229;28;20068;-67
2021/10/27 07:23:54;;;;;;;5.70;1.60;;;18.20;73.10;;;;;;5055131;28;20053;-67
2021/10/27 07:26:20;;;;;;;6.95;1.25;;;18.20;73.20;;;;;;5055039;28;20068;-67
2021/10/27 07:28:48;;;;;;;5.65;1.25;;;18.20;73.10;;;;;;5055159;28;20013;-67
2021/10/27 07:31:16;;;;;;;8.27;1.52;;;18.20;73.10;;;;;;5053907;28;20025;-67
2021/10/27 07:33:42;;;;;;;6.78;1.38;;;18.20;73.20;;;;;;5053807;28;20021;-67
2021/10/27 07:36:27;;;;;;;4.85;1.38;;;18.20;73.10;;;;;;5053943;28;20027;-67
2021/10/27 07:41:37;;;;;;;3.55;1.20;;;18.20;73.20;;;;;;5054884;28;20078;-67
2021/10/27 07:44:13;;;;;;;9.35;1.50;;;18.20;73.20;;;;;;5053338;28;20017;-67
2021/10/27 07:46:41;;;;;;;4.70;1.48;;;18.20;73.20;;;;;;5055022;28;20033;-67
2021/10/27 07:49:07;;;;;;;5.55;1.52;;;18.20;73.20;;;;;;5053577;28;20511;-67
2021/10/27 07:51:32;;;;;;;7.65;1.50;;;18.20;73.20;;;;;;5054772;28;20107;-67
2021/10/27 07:53:58;;;;;;;3.67;1.42;;;18.20;73.20;;;;;;5054587;28;20021;-67
2021/10/27 07:56:24;;;;;;;4.40;1.33;;;18.20;73.20;;;;;;5054649;28;20033;-67
2021/10/27 07:58:53;;;;;;;4.25;1.63;;;18.20;73.20;;;;;;5054391;28;20584;-67
2021/10/27 08:01:18;;;;;;;4.95;1.17;;;18.20;73.20;;;;;;5053374;28;20028;-67
2021/10/27 08:03:44;;;;;;;4.82;1.33;;;18.20;73.20;;;;;;5054437;28;20021;-67
2021/10/27 08:06:10;;;;;;;3.20;1.67;;;18.20;73.20;;;;;;5053158;28;20044;-67
2021/10/27 08:08:36;;;;;;;4.50;1.13;;;18.20;73.30;;;;;;5052991;28;20075;-67
2021/10/27 08:11:02;;;;;;;3.75;1.13;;;18.20;73.30;;;;;;5054152;28;20029;-67
2021/10/27 08:13:28;;;;;;;5.47;1.73;;;18.20;73.20;;;;;;5052834;28;20049;-68
2021/10/27 08:15:55;;;;;;;3.22;1.25;;;18.20;73.20;;;;;;5054092;28;20059;-67
2021/10/27 08:18:21;;;;;;;2.25;0.98;;;18.20;73.20;;;;;;5054324;28;20031;-67
2021/10/27 08:20:46;;;;;;;4.38;1.20;;;18.20;73.30;;;;;;5054000;28;20025;-67
2021/10/27 08:23:14;;;;;;;2.53;1.02;;;18.20;73.30;;;;;;5052955;28;20045;-67
2021/10/27 08:25:49;;;;;;;3.28;1.10;;;18.20;73.30;;;;;;5052740;28;20071;-67
2021/10/27 08:28:17;;;;;;;4.07;1.00;;;18.20;73.30;;;;;;5052551;28;20055;-67
2021/10/27 08:33:20;;;;;;;3.10;1.10;;;18.20;73.30;;;;;;5052675;28;20071;-67
2021/10/27 08:35:46;;;;;;;2.63;1.00;;;18.20;73.30;;;;;;5037373;28;20047;-67
2021/10/27 08:38:11;;;;;;;3.53;1.25;;;18.10;73.20;;;;;;5052693;28;20021;-67
2021/10/27 08:40:37;;;;;;;6.43;1.02;;;18.20;73.30;;;;;;5052627;28;20068;-67
2021/10/27 08:43:03;;;;;;;3.60;1.25;;;18.20;73.30;;;;;;5053352;28;20082;-67
2021/10/27 08:45:28;;;;;;;3.22;1.40;;;18.10;73.20;;;;;;5053903;28;20115;-67
2021/10/27 08:47:54;;;;;;;3.20;1.10;;;18.20;73.30;;;;;;5052363;28;20025;-67
2021/10/27 08:50:21;;;;;;;3.13;1.02;;;18.20;73.30;;;;;;5052357;28;20039;-67
2021/10/27 08:52:47;;;;;;;4.45;1.10;;;18.20;73.30;;;;;;5052458;28;20493;-67
2021/10/27 08:55:15;;;;;;;7.85;1.55;;;18.10;73.20;;;;;;5052355;28;20028;-67
2021/10/27 08:57:44;;;;;;;1.50;0.90;;;18.20;73.30;;;;;;5051882;28;20124;-67
2021/10/27 09:02:57;;;;;;;4.07;0.82;;;18.20;73.30;;;;;;5053402;28;20025;-67
2021/10/27 09:16:30;;;;;;;2.50;0.95;;;18.10;73.30;;;;;;5053079;28;20074;-67
2021/10/27 10:07:03;;;;;;;2.67;0.70;;;18.00;73.50;;;;;;4867562;29;20639;-67
2021/10/27 10:09:29;;;;;;;3.92;0.70;;;18.00;73.50;;;;;;4857842;29;20066;-67
2021/10/27 10:11:55;;;;;;;1.00;0.63;;;18.00;73.50;;;;;;4857914;29;20061;-67
2021/10/27 10:14:21;;;;;;;2.35;0.77;;;18.10;73.40;;;;;;4858038;29;20029;-67
2021/10/27 10:16:53;;;;;;;2.17;0.90;;;18.00;73.40;;;;;;4858067;29;20084;-67
2021/10/27 10:19:29;;;;;;;2.58;0.88;;;18.10;73.50;;;;;;4858073;29;20061;-67
2021/10/27 10:21:55;;;;;;;1.48;0.70;;;18.10;73.40;;;;;;4857893;29;20043;-67
2021/10/27 10:24:25;;;;;;;3.00;0.85;;;18.10;73.40;;;;;;4857606;29;20068;-67
2021/10/27 10:26:52;;;;;;;1.58;0.80;;;18.10;73.40;;;;;;4857929;29;20071;-67
2021/10/27 10:29:35;;;;;;;2.22;0.80;;;18.00;73.40;;;;;;4857810;29;20042;-67
2021/10/27 10:32:32;;;;;;;1.60;0.70;;;18.10;73.30;;;;;;4902321;29;20138;-67
2021/10/27 10:35:20;;;;;;;1.83;0.70;;;18.10;73.20;;;;;;4924788;29;20415;-67
2021/10/27 11:38:56;;;;;;;1.98;0.65;;;18.10;73.60;;;;;;5055268;28;20074;-68
2021/10/27 11:41:50;;;;;;;1.40;0.60;;;18.00;73.60;;;;;;5053602;28;20025;-67
2021/10/27 11:44:44;;;;;;;1.38;0.50;;;18.10;73.50;;;;;;5054743;28;20029;-67
2021/10/27 11:47:11;;;;;;;1.10;0.65;;;18.10;73.40;;;;;;5053593;28;20543;-67
2021/10/27 11:49:39;;;;;;;1.15;0.60;;;18.10;73.50;;;;;;5054899;28;20021;-67
2021/10/27 11:52:05;;;;;;;1.48;0.73;;;18.10;73.50;;;;;;5053199;28;20025;-67
2021/10/27 11:54:31;;;;;;;1.17;0.40;;;18.10;73.50;;;;;;5053426;28;20079;-67
2021/10/27 11:56:59;;;;;;;1.60;0.55;;;18.10;73.40;;;;;;5052831;28;20025;-67
2021/10/27 11:59:45;;;;;;;1.13;0.75;;;18.10;73.40;;;;;;5053440;28;20032;-67
2021/10/27 12:02:11;;;;;;;1.55;0.47;;;18.10;73.40;;;;;;5053220;28;20048;-67
2021/10/27 12:04:38;;;;;;;0.85;0.40;;;18.10;73.50;;;;;;5054384;28;20517;-67
2021/10/27 12:07:13;;;;;;;1.35;0.60;;;18.10;73.40;;;;;;5052850;28;20052;-67
2021/10/27 12:10:02;;;;;;;0.82;0.50;;;18.10;73.40;;;;;;5054538;28;20272;-67
2021/10/27 12:18:17;;;;;;;1.80;0.65;;;18.10;73.40;;;;;;5054151;28;20021;-67
2021/10/27 12:20:44;;;;;;;1.58;0.40;;;18.20;73.70;;;;;;5049326;28;20095;-68
2021/10/27 12:23:26;;;;;;;0.75;0.35;;;18.10;73.50;;;;;;5054153;28;20485;-67
2021/10/27 12:26:11;;;;;;;1.50;0.60;;;18.20;73.40;;;;;;5054065;28;20064;-67
2021/10/27 12:28:37;;;;;;;0.60;0.60;;;18.20;73.50;;;;;;5052814;28;20341;-67
2021/10/27 12:31:32;;;;;;;1.00;0.50;;;18.20;73.50;;;;;;5054051;28;20025;-67
2021/10/27 12:33:58;;;;;;;1.58;0.55;;;18.30;73.40;;;;;;5040563;28;20037;-67
2021/10/27 12:36:34;;;;;;;1.10;0.45;;;18.20;73.50;;;;;;5052702;28;20036;-67
2021/10/27 12:39:26;;;;;;;1.48;0.50;;;18.20;73.50;;;;;;5052792;28;20241;-67
2021/10/27 12:42:05;;;;;;;0.68;0.35;;;18.30;73.50;;;;;;5052741;28;20120;-67
2021/10/27 12:44:31;;;;;;;0.70;0.40;;;18.20;73.40;;;;;;5053628;28;20036;-67
2021/10/27 12:47:10;;;;;;;0.63;0.45;;;18.20;73.50;;;;;;5052439;28;20025;-67
2021/10/27 12:49:35;;;;;;;0.77;0.63;;;18.30;73.50;;;;;;5053300;28;20055;-67
2021/10/27 12:52:28;;;;;;;1.30;0.57;;;18.20;73.50;;;;;;5052492;28;20025;-67
2021/10/27 12:55:09;;;;;;;0.65;0.40;;;18.30;73.40;;;;;;5053554;28;20037;-67
2021/10/27 12:58:00;;;;;;;1.13;0.60;;;18.30;73.40;;;;;;5052213;28;20032;-68
2021/10/27 13:00:44;;;;;;;1.10;0.50;;;18.30;73.40;;;;;;5053304;28;20040;-67
2021/10/27 13:06:11;;;;;;;1.30;0.50;;;18.30;73.50;;;;;;5052220;28;20048;-67
2021/10/27 13:31:58;;;;;;;0.30;0.30;;;18.50;73.50;;;;;;5051761;28;20025;-67
2021/10/27 13:34:24;;;;;;;0.35;0.35;;;18.40;73.50;;;;;;5051468;28;20028;-68
2021/10/27 13:36:51;;;;;;;0.95;0.40;;;18.40;73.40;;;;;;5051847;28;20032;-67
2021/10/27 13:39:16;;;;;;;0.50;0.50;;;18.50;73.50;;;;;;5052652;28;20137;-68
2021/10/27 13:41:47;;;;;;;0.55;0.40;;;18.50;73.40;;;;;;5052864;28;20481;-68
2021/10/27 13:44:20;;;;;;;0.68;0.35;;;18.50;73.40;;;;;;5051529;28;20024;-67
2021/10/27 13:47:16;;;;;;;0.70;0.30;;;18.50;73.40;;;;;;5052296;28;20021;-67
2021/10/27 13:57:52;;;;;;;0.20;0.20;;;18.50;73.50;;;;;;5052380;28;20083;-67
2021/10/27 14:11:24;;;;;;;0.52;0.28;;;18.50;73.40;;;;;;5052304;28;20077;-67
2021/10/27 14:14:04;;;;;;;0.75;0.40;;;18.60;73.50;;;;;;5052221;28;20024;-67
2021/10/27 14:16:50;;;;;;;0.50;0.50;;;18.60;73.50;;;;;;5050898;28;20528;-67
2021/10/27 15:21:26;;;;;;;0.88;0.32;;;18.60;73.20;;;;;;5050913;28;20036;-67
2021/10/27 15:25:05;;;;;;;0.40;0.40;;;18.70;73.20;;;;;;5051614;28;20025;-67
2021/10/27 15:33:28;;;;;;;0.65;0.40;;;18.60;73.20;;;;;;4916385;29;20044;-67
2021/10/27 15:50:27;;;;;;;0.40;0.30;;;18.70;73.10;;;;;;4916633;29;20032;-67
2021/10/27 15:51:05;;;;;;;0.52;0.38;;;18.70;73.10;;;;;;4916527;29;20043;-67
2021/10/27 15:53:31;;;;;;;0.30;0.20;;;18.60;73.10;;;;;;4916547;29;20067;-68
2021/10/27 15:55:56;;;;;;;0.43;0.40;;;18.60;73.00;;;;;;4916394;29;20084;-67
2021/10/27 15:58:23;;;;;;;1.52;0.50;;;18.60;73.00;;;;;;4915982;29;20032;-67
2021/10/27 16:00:48;;;;;;;0.73;0.20;;;18.70;73.10;;;;;;4916243;29;20147;-68
2021/10/27 16:03:16;;;;;;;0.70;0.40;;;18.60;74.00;;;;;;4916342;29;20570;-67
2021/10/27 16:05:43;;;;;;;0.45;0.28;;;18.60;73.00;;;;;;4923313;28;20037;-68
2021/10/27 16:08:12;;;;;;;0.75;0.38;;;18.60;73.00;;;;;;4987781;28;20137;-68
2021/10/27 16:10:37;;;;;;;0.93;0.47;;;18.70;73.00;;;;;;5034070;28;20175;-67
2021/10/27 16:13:03;;;;;;;0.70;0.28;;;18.70;73.00;;;;;;5034276;28;20100;-67
2021/10/27 16:18:01;;;;;;;0.77;0.63;;;18.70;73.00;;;;;;5033506;28;20030;-67
2021/10/27 16:20:27;;;;;;;0.57;0.35;;;18.70;73.00;;;;;;5034246;28;20021;-67
2021/10/27 16:22:52;;;;;;;0.25;0.25;;;18.60;72.90;;;;;;5016723;28;20397;-67
2021/10/27 16:25:18;;;;;;;0.40;0.30;;;18.60;72.90;;;;;;5019899;28;20542;-67
2021/10/27 16:27:43;;;;;;;0.82;0.30;;;18.60;72.80;;;;;;5033990;28;20025;-67
2021/10/27 16:30:10;;;;;;;0.60;0.32;;;18.60;72.80;;;;;;5033092;28;20025;-67
2021/10/27 16:32:36;;;;;;;0.50;0.40;;;18.60;72.90;;;;;;5033935;28;20390;-67
2021/10/27 16:35:03;;;;;;;0.22;0.22;;;18.60;72.80;;;;;;5034106;28;20025;-67
2021/10/27 16:37:29;;;;;;;0.30;0.30;;;18.60;72.80;;;;;;5032992;28;20029;-67
2021/10/27 16:39:55;;;;;;;0.47;0.47;;;18.60;72.80;;;;;;5032351;28;20079;-67
2021/10/27 16:42:21;;;;;;;0.35;0.32;;;18.60;72.80;;;;;;5034090;28;20028;-67
2021/10/27 16:44:47;;;;;;;1.45;0.35;;;18.60;72.80;;;;;;5032617;28;20025;-68
2021/10/27 16:47:13;;;;;;;0.88;0.50;;;18.60;72.70;;;;;;5033819;28;20022;-68
2021/10/27 16:49:38;;;;;;;1.92;0.30;;;18.60;72.80;;;;;;5032533;28;20028;-67
2021/10/27 16:52:04;;;;;;;1.33;0.25;;;18.60;72.70;;;;;;5033863;28;20021;-67
2021/10/27 16:54:30;;;;;;;0.40;0.30;;;18.60;72.70;;;;;;5032193;28;20576;-67
2021/10/27 16:56:55;;;;;;;0.73;0.35;;;18.60;72.70;;;;;;5037903;28;20461;-67
2021/10/27 16:59:21;;;;;;;0.80;0.50;;;18.60;72.70;;;;;;5039090;28;20515;-67
2021/10/27 17:01:47;;;;;;;0.20;0.20;;;18.60;72.70;;;;;;5039833;28;20025;-67
2021/10/27 17:04:12;;;;;;;1.10;0.50;;;18.60;72.70;;;;;;5064992;28;20031;-67
2021/10/27 17:06:39;;;;;;;0.47;0.45;;;18.60;72.70;;;;;;5067254;28;20410;-67
2021/10/27 17:09:04;;;;;;;0.57;0.40;;;18.60;72.70;;;;;;5015837;28;20026;-67
2021/10/27 17:11:30;;;;;;;0.52;0.25;;;18.60;72.70;;;;;;5032862;28;20024;-67
2021/10/27 17:13:56;;;;;;;1.35;0.50;;;18.60;72.70;;;;;;5032006;28;20029;-67
2021/10/27 17:16:21;;;;;;;0.50;0.50;;;18.60;72.70;;;;;;5031783;28;20024;-67
2021/10/27 17:18:47;;;;;;;0.75;0.40;;;18.60;72.70;;;;;;5037662;28;20056;-67
2021/10/27 17:21:14;;;;;;;0.88;0.38;;;18.60;72.70;;;;;;5053898;28;20024;-71
2021/10/27 17:23:40;;;;;;;0.85;0.30;;;18.60;72.70;;;;;;5051828;28;20037;-78
2021/10/27 17:26:06;;;;;;;1.30;0.57;;;18.60;72.80;;;;;;5061927;28;20048;-78
2021/10/27 17:28:32;;;;;;;6.55;0.40;;;18.60;72.90;;;;;;5043618;28;20029;-78
2021/10/27 17:30:58;;;;;;;0.60;0.52;;;18.60;72.80;;;;;;5042014;28;20013;-80
2021/10/27 17:33:25;;;;;;;0.98;0.40;;;18.50;71.70;;;;;;5044613;28;20538;-82
2021/10/27 17:35:53;;;;;;;1.27;0.32;;;18.20;72.60;;;;;;5044030;28;20434;-79
2021/10/27 17:38:20;;;;;;;1.58;0.43;;;18.00;73.30;;;;;;5044071;28;20013;-78
2021/10/27 17:40:48;;;;;;;0.35;0.35;;;17.80;74.20;;;;;;5052894;28;20021;-84
2021/10/27 17:43:14;;;;;;;0.43;0.35;;;17.80;74.70;;;;;;5044362;28;20560;-78